Time;durP1;ratioP1;P1;durP2;ratioP2;P2;SDS_P1;SDS_P2;PMS_P1;PMS_P2;Temp;Humidity;BMP_temperature;BMP_pressure;BME280_temperature;BME280_humidity;BME280_pressure;Samples;Min_cycle;Max_cycle;Signal;HPM_P1;HPM_P2
2022/04/14 00:03:42;;;;;;;15.63;9.73;;;;;;;14.91;54.42;100084.03;10317403;28;20058;-81
2022/04/14 00:08:44;;;;;;;17.00;10.27;;;;;;;14.97;53.94;100077.47;10301311;28;20098;-81
2022/04/14 00:13:46;;;;;;;14.95;8.80;;;;;;;14.89;54.14;100085.09;10320121;28;20054;-81
2022/04/14 00:18:47;;;;;;;18.33;10.05;;;;;;;14.88;54.46;100089.53;10319251;28;20158;-82
2022/04/14 00:23:49;;;;;;;13.32;8.27;;;;;;;14.71;54.57;100091.75;10318506;28;20120;-81
2022/04/14 00:28:51;;;;;;;15.50;10.82;;;;;;;14.59;55.18;100098.75;10302390;28;20085;-81
2022/04/14 00:33:53;;;;;;;13.38;10.00;;;;;;;14.50;55.05;100099.41;10318406;28;20501;-81
2022/04/14 00:38:55;;;;;;;17.58;10.32;;;;;;;14.50;55.38;100100.28;10300518;28;20086;-81
2022/04/14 00:43:56;;;;;;;15.40;10.82;;;;;;;14.46;55.63;100103.19;10316781;28;20109;-81
2022/04/14 00:48:58;;;;;;;18.38;12.05;;;;;;;14.48;55.48;100096.03;10317478;28;21029;-82
2022/04/14 00:54:00;;;;;;;19.85;10.95;;;;;;;14.45;55.69;100097.09;10300020;28;20054;-81
2022/04/14 00:59:02;;;;;;;14.70;11.60;;;;;;;14.47;55.52;100095.19;10316752;28;20054;-81
2022/04/14 01:04:04;;;;;;;15.02;11.00;;;;;;;14.45;55.77;100104.97;10312599;28;20557;-81
2022/04/14 01:09:18;;;;;;;19.08;11.40;;;;;;;14.48;55.70;100106.56;10315291;28;20066;-81
2022/04/14 01:14:31;;;;;;;21.13;11.95;;;;;;;14.21;56.34;100113.81;10316161;28;20128;-81
2022/04/14 01:19:34;;;;;;;17.90;11.90;;;;;;;14.17;56.35;100109.72;10317494;28;21061;-81
2022/04/14 01:24:36;;;;;;;17.92;11.93;;;;;;;14.11;56.39;100107.53;10315190;28;20470;-81
2022/04/14 01:29:38;;;;;;;16.33;11.07;;;;;;;14.09;56.46;100115.53;10316840;28;20401;-81
2022/04/14 01:34:40;;;;;;;17.75;11.40;;;;;;;13.93;56.62;100120.19;10314719;28;20054;-81
2022/04/14 01:39:42;;;;;;;24.00;12.98;;;;;;;13.95;56.91;100123.56;10315965;28;20113;-81
2022/04/14 01:44:44;;;;;;;17.20;10.93;;;;;;;13.88;57.01;100134.63;10314024;28;20124;-81
2022/04/14 01:49:46;;;;;;;16.85;11.80;;;;;;;13.95;56.83;100138.50;10298396;28;20197;-81
2022/04/14 01:54:48;;;;;;;21.10;11.63;;;;;;;13.83;57.09;100139.34;10314044;28;20136;-81
2022/04/14 01:59:49;;;;;;;21.40;12.95;;;;;;;13.77;57.51;100138.00;10315510;28;20046;-81
2022/04/14 02:04:51;;;;;;;17.77;12.13;;;;;;;13.85;57.33;100138.31;10317765;28;20058;-81
2022/04/14 02:09:53;;;;;;;21.67;14.20;;;;;;;13.94;57.00;100136.81;10320390;28;20058;-81
2022/04/14 02:14:55;;;;;;;19.75;12.30;;;;;;;13.94;56.82;100145.56;10319365;28;20496;-81
2022/04/14 02:19:56;;;;;;;17.80;10.77;;;;;;;13.90;56.94;100148.50;10319355;28;20105;-81
2022/04/14 02:24:58;;;;;;;14.50;9.50;;;;;;;13.85;57.04;100143.56;10317627;28;20120;-81
2022/04/14 02:30:00;;;;;;;14.70;10.02;;;;;;;13.73;57.11;100149.66;10319866;28;20390;-81
2022/04/14 02:35:04;;;;;;;20.88;12.25;;;;;;;13.64;57.29;100150.28;10318943;28;20398;-81
2022/04/14 02:40:07;;;;;;;20.85;13.38;;;;;;;13.56;57.51;100145.56;10319739;28;20057;-81
2022/04/14 02:45:09;;;;;;;16.90;12.95;;;;;;;13.54;57.62;100139.56;10319372;28;20111;-81
2022/04/14 02:50:11;;;;;;;16.40;12.90;;;;;;;13.59;57.52;100144.53;10319379;28;20058;-81
2022/04/14 02:55:13;;;;;;;17.63;13.05;;;;;;;13.53;57.46;100152.84;10316873;28;20113;-81
2022/04/14 03:00:16;;;;;;;17.38;11.48;;;;;;;13.44;57.64;100154.28;10318956;28;20058;-81
2022/04/14 03:05:18;;;;;;;21.02;12.65;;;;;;;13.35;57.79;100148.81;10318897;28;20054;-81
2022/04/14 03:10:21;;;;;;;18.30;13.20;;;;;;;13.35;58.03;100165.38;10325082;28;20058;-81
2022/04/14 03:15:22;;;;;;;20.33;14.25;;;;;;;13.34;58.19;100163.72;10320802;28;20093;-81
2022/04/14 03:20:24;;;;;;;19.50;13.45;;;;;;;13.33;58.15;100156.75;10301704;28;20054;-82
2022/04/14 03:25:26;;;;;;;19.42;15.40;;;;;;;13.29;58.53;100162.34;10318823;28;20062;-81
2022/04/14 03:30:28;;;;;;;26.58;16.98;;;;;;;13.28;58.83;100161.50;10317091;28;20092;-81
2022/04/14 03:35:29;;;;;;;24.75;16.65;;;;;;;13.39;58.49;100161.59;10307255;28;20242;-81
2022/04/14 03:40:31;;;;;;;22.10;15.20;;;;;;;13.42;58.42;100169.31;10325207;28;20074;-81
2022/04/14 03:45:33;;;;;;;19.70;15.85;;;;;;;13.42;58.41;100177.19;10325720;28;20078;-81
2022/04/14 03:50:35;;;;;;;22.33;15.07;;;;;;;13.41;58.60;100164.16;10324035;28;20962;-81
2022/04/14 03:55:37;;;;;;;20.63;15.05;;;;;;;13.40;58.56;100167.69;10325202;28;20454;-81
2022/04/14 04:00:39;;;;;;;26.23;15.25;;;;;;;13.30;58.66;100167.50;10322814;28;20471;-81
2022/04/14 04:05:40;;;;;;;25.45;14.88;;;;;;;13.28;58.53;100166.75;10307076;28;20047;-81
2022/04/14 04:10:42;;;;;;;21.02;13.13;;;;;;;13.17;58.71;100174.50;10324547;28;20496;-81
2022/04/14 04:15:45;;;;;;;19.67;13.15;;;;;;;13.09;58.92;100170.72;10323074;28;20054;-81
2022/04/14 04:20:48;;;;;;;17.98;13.90;;;;;;;13.14;58.79;100173.88;10324671;28;20054;-81
2022/04/14 04:25:50;;;;;;;23.27;17.38;;;;;;;13.08;59.17;100190.03;10323663;28;20063;-82
2022/04/14 04:30:51;;;;;;;20.75;14.02;;;;;;;13.12;58.93;100191.50;10324122;28;20475;-81
2022/04/14 04:35:53;;;;;;;22.73;15.45;;;;;;;13.19;59.05;100192.78;10325092;28;20057;-82
2022/04/14 04:40:58;;;;;;;20.77;15.30;;;;;;;13.21;59.05;100194.34;10323798;28;20050;-81
2022/04/14 04:46:00;;;;;;;29.92;19.13;;;;;;;13.17;59.19;100197.31;10320945;28;20531;-81
2022/04/14 04:51:02;;;;;;;26.48;18.05;;;;;;;13.20;59.24;100197.09;10323120;28;20054;-81
2022/04/14 04:56:04;;;;;;;24.25;17.63;;;;;;;13.27;59.03;100204.44;10323913;28;20054;-81
2022/04/14 05:01:06;;;;;;;22.20;15.82;;;;;;;13.21;59.16;100207.50;10323947;28;20100;-81
2022/04/14 05:06:08;;;;;;;22.90;16.02;;;;;;;13.19;59.35;100209.38;10323895;28;20050;-81
2022/04/14 05:11:10;;;;;;;22.40;15.98;;;;;;;13.28;59.15;100215.81;10323060;28;20117;-81
2022/04/14 05:16:11;;;;;;;23.88;15.90;;;;;;;13.40;59.03;100213.22;10318687;28;20054;-75
2022/04/14 05:21:14;;;;;;;22.77;15.35;;;;;;;13.48;58.78;100228.50;10315766;28;20054;-75
2022/04/14 05:26:16;;;;;;;21.52;15.77;;;;;;;13.54;58.83;100233.31;10314742;28;20057;-75
2022/04/14 05:31:18;;;;;;;22.17;16.48;;;;;;;13.57;58.88;100226.09;10306620;28;20082;-75
2022/04/14 05:36:21;;;;;;;22.60;14.55;;;;;;;13.52;58.81;100229.97;10312577;28;20060;-76
2022/04/14 05:41:23;;;;;;;25.95;16.17;;;;;;;13.61;58.71;100229.34;10308807;28;20501;-76
2022/04/14 05:46:24;;;;;;;23.92;17.30;;;;;;;13.69;58.60;100237.56;10311054;28;20081;-75
2022/04/14 05:51:26;;;;;;;21.65;15.00;;;;;;;13.73;58.54;100233.78;10309322;28;20480;-75
2022/04/14 05:56:28;;;;;;;28.83;17.10;;;;;;;13.77;58.52;100235.25;10310605;28;20321;-75
2022/04/14 06:01:30;;;;;;;23.52;16.67;;;;;;;13.83;58.54;100231.38;10310888;28;21142;-75
2022/04/14 06:06:32;;;;;;;23.98;16.17;;;;;;;13.90;58.50;100236.13;10307263;28;20097;-75
2022/04/14 06:11:34;;;;;;;29.55;17.77;;;;;;;13.95;58.34;100239.25;10310049;28;20046;-75
2022/04/14 06:16:38;;;;;;;27.92;18.40;;;;;;;13.95;58.27;100248.94;10312394;28;20155;-77
2022/04/14 06:21:39;;;;;;;25.00;18.10;;;;;;;14.02;58.23;100248.41;10305034;28;20046;-77
2022/04/14 06:26:41;;;;;;;24.35;17.10;;;;;;;14.15;58.37;100257.13;10305181;28;20320;-77
2022/04/14 06:31:48;;;;;;;27.80;17.13;;;;;;;14.28;58.18;100255.34;10304556;28;20101;-77
2022/04/14 06:36:50;;;;;;;28.85;16.85;;;;;;;14.39;57.92;100259.84;10307638;28;20068;-77
2022/04/14 06:41:52;;;;;;;23.13;16.35;;;;;;;14.46;57.70;100266.34;10302433;28;20526;-77
2022/04/14 06:46:57;;;;;;;23.38;14.73;;;;;;;14.42;57.69;100268.38;10303301;28;20070;-77
2022/04/14 06:52:01;;;;;;;28.15;15.93;;;;;;;14.40;57.56;100264.16;10311302;28;20054;-77
2022/04/14 06:57:04;;;;;;;25.30;15.65;;;;;;;14.41;57.31;100274.56;10310719;28;20109;-77
2022/04/14 07:02:07;;;;;;;27.02;16.60;;;;;;;14.40;57.21;100278.16;10304131;28;20057;-77
2022/04/14 07:07:09;;;;;;;25.00;18.20;;;;;;;14.32;57.42;100285.75;10303106;28;20530;-77
2022/04/14 07:12:11;;;;;;;22.58;17.08;;;;;;;14.42;57.11;100283.31;10295760;28;21208;-77
2022/04/14 07:17:16;;;;;;;23.73;16.55;;;;;;;14.61;56.88;100294.28;10313556;28;20089;-77
2022/04/14 07:22:19;;;;;;;23.05;16.77;;;;;;;14.81;56.02;100287.59;10313031;28;20054;-77
2022/04/14 07:27:21;;;;;;;26.30;18.25;;;;;;;14.86;56.01;100285.47;10298160;28;20586;-77
2022/04/14 07:32:23;;;;;;;26.50;18.30;;;;;;;15.01;55.46;100282.56;10318342;28;20576;-82
2022/04/14 07:37:25;;;;;;;25.65;18.75;;;;;;;15.26;55.11;100286.91;10315177;28;20058;-82
2022/04/14 07:42:34;;;;;;;27.15;18.58;;;;;;;15.35;54.52;100299.38;10295670;28;20050;-82
2022/04/14 07:47:41;;;;;;;27.85;17.90;;;;;;;15.42;54.86;100298.00;10304505;28;20056;-82
2022/04/14 07:52:53;;;;;;;29.33;19.73;;;;;;;15.43;54.69;100307.56;10303883;28;20054;-82
2022/04/14 07:57:57;;;;;;;29.15;19.48;;;;;;;15.58;54.53;100311.75;10322470;28;20311;-82
2022/04/14 08:03:00;;;;;;;28.30;18.05;;;;;;;15.55;54.21;100311.94;10321200;28;20276;-86
2022/04/14 08:08:05;;;;;;;23.83;16.92;;;;;;;15.54;53.94;100320.84;10321425;28;20054;-83
2022/04/14 08:13:07;;;;;;;25.20;17.55;;;;;;;15.67;53.80;100321.63;10322980;28;20050;-83
2022/04/14 08:18:09;;;;;;;23.55;15.60;;;;;;;15.90;53.28;100323.34;10305613;28;20058;-83
2022/04/14 08:23:12;;;;;;;25.77;16.17;;;;;;;16.14;52.70;100328.59;10321515;28;20081;-83
2022/04/14 08:28:14;;;;;;;20.30;14.50;;;;;;;16.30;52.32;100333.50;10323004;28;20252;-83
2022/04/14 08:33:20;;;;;;;24.13;15.48;;;;;;;16.38;52.17;100326.69;10316721;28;20098;-83
2022/04/14 08:38:22;;;;;;;24.60;16.77;;;;;;;16.40;51.54;100329.22;10299801;28;20074;-83
2022/04/14 08:43:32;;;;;;;26.05;16.00;;;;;;;16.85;51.16;100333.56;10318832;28;20133;-83
2022/04/14 08:48:34;;;;;;;;;;;;;;;16.78;51.18;100333.19;10320390;28;20492;-83
2022/04/14 09:00:00;;;;;;;19.02;12.65;;;;;;;17.18;49.74;100328.19;10320906;28;20400;-83
2022/04/14 09:05:03;;;;;;;18.65;12.80;;;;;;;17.25;49.27;100326.75;10322052;28;20061;-83
2022/04/14 09:10:06;;;;;;;17.92;12.15;;;;;;;17.44;48.71;100324.34;10320433;28;20132;-83
2022/04/14 09:15:09;;;;;;;15.95;11.88;;;;;;;17.67;48.01;100328.56;10320446;28;20496;-83
2022/04/14 09:20:28;;;;;;;17.70;10.63;;;;;;;17.92;46.94;100326.50;10322913;28;20536;-83
2022/04/14 09:25:30;;;;;;;19.70;10.93;;;;;;;17.99;46.51;100322.41;10324177;28;20116;-83
2022/04/14 09:30:32;;;;;;;13.32;8.18;;;;;;;18.06;46.01;100321.75;10324231;28;20055;-83
2022/04/14 09:36:08;;;;;;;12.25;7.70;;;;;;;18.01;45.14;100323.09;10319658;28;20104;-83
2022/04/14 09:41:26;;;;;;;11.48;7.70;;;;;;;18.03;44.33;100323.81;10320411;28;20112;-84
2022/04/14 09:46:32;;;;;;;10.40;7.25;;;;;;;18.38;44.15;100329.63;10316061;28;20575;-83
2022/04/14 09:51:36;;;;;;;15.77;8.00;;;;;;;18.49;43.56;100329.53;10314110;28;20043;-83
2022/04/14 09:56:54;;;;;;;15.35;5.97;;;;;;;19.03;41.66;100332.69;10311056;28;20082;-83
2022/04/14 10:02:14;;;;;;;10.23;6.22;;;;;;;19.25;41.81;100326.34;10312551;28;20058;-84
2022/04/14 10:07:19;;;;;;;12.25;5.55;;;;;;;19.58;41.44;100325.13;10313075;28;20085;-84
2022/04/14 10:12:24;;;;;;;10.85;5.25;;;;;;;19.60;40.45;100316.03;10311456;28;20084;-83
2022/04/14 10:17:37;;;;;;;8.93;4.90;;;;;;;19.79;39.89;100315.16;10316956;28;20093;-83
2022/04/14 10:22:39;;;;;;;10.20;4.05;;;;;;;19.65;40.38;100313.78;10315168;28;20065;-83
2022/04/14 10:27:43;;;;;;;6.88;4.00;;;;;;;19.44;40.45;100324.53;10315037;28;20312;-82
2022/04/14 10:32:46;;;;;;;8.80;3.80;;;;;;;19.32;41.34;100323.00;10315416;28;20050;-82
2022/04/14 10:38:10;;;;;;;5.65;3.42;;;;;;;19.43;41.66;100332.63;10316269;28;20093;-83
2022/04/14 10:43:20;;;;;;;7.97;3.90;;;;;;;19.33;41.01;100334.44;10314989;28;20109;-83
2022/04/14 10:48:28;;;;;;;8.00;4.28;;;;;;;19.23;40.47;100329.13;10315313;28;20054;-83
2022/04/14 10:53:50;;;;;;;5.13;3.25;;;;;;;19.22;40.80;100330.09;10296541;28;20058;-83
2022/04/14 10:58:53;;;;;;;5.13;3.00;;;;;;;19.34;40.36;100330.81;10309448;28;20128;-82
2022/04/14 11:03:57;;;;;;;6.78;3.22;;;;;;;19.03;40.54;100319.44;10311010;28;20121;-82
2022/04/14 11:09:00;;;;;;;5.32;2.60;;;;;;;19.17;40.58;100324.38;10308535;28;20104;-83
2022/04/14 11:14:09;;;;;;;8.00;3.00;;;;;;;19.21;40.14;100325.78;10308656;28;20050;-83
2022/04/14 11:19:39;;;;;;;8.33;4.00;;;;;;;19.34;40.30;100326.34;10296692;28;20050;-83
2022/04/14 11:24:43;;;;;;;7.60;3.60;;;;;;;19.72;39.41;100325.53;10314382;28;20051;-83
2022/04/14 11:29:57;;;;;;;5.78;2.83;;;;;;;19.33;39.36;100332.63;10315563;28;20065;-83
2022/04/14 11:35:16;;;;;;;5.47;2.83;;;;;;;19.42;39.36;100323.84;10316039;28;20091;-83
2022/04/14 11:40:22;;;;;;;5.90;2.50;;;;;;;19.45;39.24;100318.25;10313716;28;20077;-83
2022/04/14 11:45:28;;;;;;;4.97;2.70;;;;;;;19.35;38.67;100308.63;10296283;28;20461;-83
2022/04/14 11:50:33;;;;;;;6.05;2.70;;;;;;;19.46;38.01;100304.00;10307230;28;20058;-83
2022/04/14 11:55:39;;;;;;;4.90;2.70;;;;;;;19.16;38.50;100304.13;10313006;28;20102;-83
2022/04/14 12:00:47;;;;;;;4.93;2.33;;;;;;;19.04;38.61;100299.06;10315912;28;20062;-83
2022/04/14 12:05:55;;;;;;;4.95;2.58;;;;;;;19.41;38.03;100290.34;10316828;28;20464;-82
2022/04/14 12:11:09;;;;;;;5.50;2.85;;;;;;;19.24;38.91;100282.22;10319672;28;20101;-80
2022/04/14 12:16:22;;;;;;;5.75;3.42;;;;;;;18.90;39.08;100284.38;10320041;28;20074;-82
2022/04/14 12:21:26;;;;;;;5.38;2.60;;;;;;;18.87;40.62;100279.31;10320807;28;20046;-82
2022/04/14 12:26:48;;;;;;;5.85;2.40;;;;;;;19.19;39.15;100285.31;10313106;28;20046;-82
2022/04/14 12:31:56;;;;;;;5.13;2.70;;;;;;;19.40;39.27;100282.50;10303012;28;20054;-82
2022/04/14 12:37:08;;;;;;;4.60;2.50;;;;;;;19.45;40.53;100264.38;10315665;28;20057;-82
2022/04/14 12:42:23;;;;;;;4.95;2.40;;;;;;;19.51;39.86;100262.97;10319024;28;20046;-82
2022/04/14 12:47:30;;;;;;;4.75;2.40;;;;;;;19.55;39.35;100262.53;10320784;28;20054;-82
2022/04/14 12:52:32;;;;;;;4.38;2.50;;;;;;;19.40;39.74;100246.22;10319367;28;20050;-82
2022/04/14 12:57:35;;;;;;;7.32;2.80;;;;;;;19.51;39.47;100241.75;10319972;28;20085;-82
2022/04/14 13:02:39;;;;;;;5.72;2.42;;;;;;;19.55;40.08;100257.25;10320767;28;20576;-82
2022/04/14 13:07:53;;;;;;;4.18;2.65;;;;;;;19.56;38.27;100266.03;10316428;28;20137;-83
2022/04/14 13:12:58;;;;;;;6.53;2.20;;;;;;;19.75;38.24;100271.31;10302586;28;20062;-82
2022/04/14 13:18:04;;;;;;;4.25;2.10;;;;;;;19.98;37.31;100268.25;10316733;28;20064;-82
2022/04/14 13:23:10;;;;;;;4.43;2.60;;;;;;;20.15;35.85;100267.50;10312706;28;20050;-82
2022/04/14 13:28:16;;;;;;;4.70;2.25;;;;;;;20.03;35.97;100270.47;10319667;28;20042;-82
2022/04/14 13:33:19;;;;;;;5.18;2.90;;;;;;;20.57;35.86;100275.88;10314573;28;20420;-82
2022/04/14 13:38:21;;;;;;;6.15;2.78;;;;;;;20.70;35.55;100272.91;10317307;28;20090;-82
2022/04/14 13:43:23;;;;;;;6.47;2.67;;;;;;;20.60;34.91;100267.63;10311894;28;20086;-82
2022/04/14 13:48:28;;;;;;;5.95;2.55;;;;;;;20.83;34.52;100254.78;10310070;28;20480;-82
2022/04/14 13:53:30;;;;;;;6.40;2.55;;;;;;;21.13;34.32;100248.28;10316059;28;20159;-83
2022/04/14 13:58:35;;;;;;;5.85;2.85;;;;;;;21.26;33.67;100256.72;10316892;28;20093;-82
2022/04/14 14:04:04;;;;;;;5.60;3.30;;;;;;;21.11;33.34;100247.59;10316384;28;20057;-82
2022/04/14 14:09:06;;;;;;;10.23;3.20;;;;;;;21.01;34.39;100240.53;10308232;28;20108;-82
2022/04/14 14:14:09;;;;;;;6.05;2.92;;;;;;;20.94;34.63;100242.13;10313501;28;20571;-82
2022/04/14 14:19:12;;;;;;;5.32;3.13;;;;;;;20.82;35.06;100234.50;10314672;28;20054;-82
2022/04/14 14:24:19;;;;;;;6.85;3.90;;;;;;;21.07;34.12;100237.25;10316898;28;20622;-82
2022/04/14 14:29:23;;;;;;;7.72;3.60;;;;;;;21.13;32.78;100237.66;10316173;28;20054;-82
2022/04/14 14:34:25;;;;;;;8.13;4.10;;;;;;;20.87;33.19;100237.53;10316455;28;20050;-82
2022/04/14 14:39:31;;;;;;;8.77;4.55;;;;;;;20.78;32.92;100231.31;10316997;28;20051;-82
2022/04/14 14:44:45;;;;;;;7.28;5.15;;;;;;;20.55;33.92;100237.97;10317361;28;20471;-82
2022/04/14 14:49:50;;;;;;;7.25;4.97;;;;;;;20.75;33.94;100244.03;10316855;28;20108;-82
2022/04/14 14:54:53;;;;;;;9.38;5.88;;;;;;;20.93;33.38;100232.47;10312153;28;20401;-82
2022/04/14 15:00:01;;;;;;;10.18;6.20;;;;;;;21.03;33.19;100241.19;10314861;28;20054;-83
2022/04/14 15:05:04;;;;;;;6.47;4.85;;;;;;;20.54;33.06;100246.91;10312309;28;20712;-83
2022/04/14 15:10:07;;;;;;;7.15;5.75;;;;;;;20.08;33.06;100241.66;10313058;28;20113;-82
2022/04/14 15:15:09;;;;;;;9.48;5.30;;;;;;;20.01;33.76;100254.66;10313056;28;20085;-82
2022/04/14 15:20:12;;;;;;;7.78;5.75;;;;;;;20.09;33.90;100259.28;10304552;28;20050;-82
2022/04/14 15:25:16;;;;;;;9.43;6.60;;;;;;;20.25;34.15;100255.00;10303838;28;20130;-82
2022/04/14 15:30:18;;;;;;;10.85;7.43;;;;;;;20.14;34.57;100259.66;10316878;28;20061;-82
2022/04/14 15:35:21;;;;;;;11.50;6.68;;;;;;;19.96;34.84;100264.91;10312862;28;20054;-83
2022/04/14 15:40:24;;;;;;;10.93;6.43;;;;;;;20.22;34.44;100265.09;10313486;28;20519;-82
2022/04/14 15:45:27;;;;;;;9.30;5.82;;;;;;;20.52;33.43;100250.72;10313886;28;20615;-83
2022/04/14 15:50:29;;;;;;;8.48;4.65;;;;;;;20.91;33.67;100253.03;10314463;28;20060;-82
2022/04/14 15:55:45;;;;;;;9.77;4.97;;;;;;;21.11;31.77;100259.06;10294072;28;20089;-82
2022/04/14 16:00:47;;;;;;;9.25;5.25;;;;;;;20.89;32.01;100257.69;10313178;28;20112;-82
2022/04/14 16:05:49;;;;;;;5.95;4.00;;;;;;;20.34;32.35;100255.97;10318881;28;20062;-82
2022/04/14 16:16:31;;;;;;;5.47;3.60;;;;;;;20.53;32.22;100257.69;10308290;28;20816;-82
2022/04/14 16:21:34;;;;;;;4.97;3.50;;;;;;;20.30;32.43;100257.25;10307611;28;20133;-83
2022/04/14 16:26:36;;;;;;;8.65;3.30;;;;;;;20.24;32.57;100266.63;10312892;28;20389;-82
2022/04/14 16:31:41;;;;;;;7.47;3.33;;;;;;;20.10;32.25;100256.47;10319813;28;20053;-82
2022/04/14 16:36:50;;;;;;;7.25;2.80;;;;;;;20.27;32.23;100253.03;10315497;28;20500;-82
2022/04/14 16:41:54;;;;;;;5.63;3.05;;;;;;;20.22;32.58;100257.13;10315145;28;20050;-82
2022/04/14 16:46:56;;;;;;;8.15;3.67;;;;;;;20.05;33.03;100269.34;10315720;28;20117;-81
2022/04/14 16:52:00;;;;;;;7.57;3.38;;;;;;;20.02;33.70;100268.78;10317655;28;20050;-82
2022/04/14 16:57:03;;;;;;;4.90;3.33;;;;;;;20.22;32.67;100265.09;10316109;28;21125;-81
2022/04/14 17:02:10;;;;;;;7.15;3.60;;;;;;;19.96;32.93;100280.00;10319554;28;20074;-82
2022/04/14 17:07:13;;;;;;;7.60;3.50;;;;;;;19.59;33.67;100282.50;10317076;28;20054;-82
2022/04/14 17:12:17;;;;;;;7.20;3.67;;;;;;;19.18;34.51;100282.78;10274789;28;20090;-82
2022/04/14 17:17:19;;;;;;;8.32;3.90;;;;;;;18.66;35.83;100289.19;10274412;28;20509;-82
2022/04/14 17:27:45;;;;;;;12.18;3.80;;;;;;;18.48;36.79;100309.34;10275197;28;20514;-82
2022/04/14 17:32:51;;;;;;;7.75;4.15;;;;;;;18.39;37.23;100310.97;10274900;28;20054;-82
2022/04/14 17:37:54;;;;;;;7.60;3.63;;;;;;;18.28;37.55;100316.31;10277480;28;20051;-82
2022/04/14 17:43:08;;;;;;;7.47;3.60;;;;;;;18.07;38.37;100322.59;10274805;28;20198;-82
2022/04/14 17:48:11;;;;;;;8.68;3.97;;;;;;;17.97;38.86;100325.19;10275101;28;20655;-82
2022/04/14 17:53:15;;;;;;;6.47;3.40;;;;;;;17.91;38.76;100335.44;10269078;28;20113;-81
2022/04/14 17:58:19;;;;;;;5.78;4.00;;;;;;;17.73;39.12;100328.03;10276947;28;20567;-81
2022/04/14 18:03:22;;;;;;;10.82;3.75;;;;;;;17.60;40.00;100348.56;10275703;28;20047;-82
2022/04/14 18:08:24;;;;;;;6.75;3.83;;;;;;;17.44;39.73;100352.56;10281418;28;21087;-81
2022/04/14 18:13:26;;;;;;;8.85;4.90;;;;;;;17.29;40.34;100344.06;10309817;28;20169;-81
2022/04/14 18:18:28;;;;;;;8.88;4.95;;;;;;;17.12;40.55;100351.66;10309416;28;20582;-81
2022/04/14 18:23:30;;;;;;;7.43;5.10;;;;;;;16.90;41.20;100349.88;10314145;28;20050;-82
2022/04/14 18:28:34;;;;;;;7.88;5.40;;;;;;;16.78;41.55;100348.19;10311608;28;20058;-81
2022/04/14 18:33:37;;;;;;;9.68;4.82;;;;;;;16.57;42.05;100355.19;10312101;28;20144;-81
2022/04/14 18:38:39;;;;;;;9.00;4.95;;;;;;;16.42;42.77;100365.09;10311857;28;20129;-81
2022/04/14 18:43:43;;;;;;;7.85;4.75;;;;;;;16.15;43.34;100375.97;10312756;28;20056;-80
2022/04/14 18:48:46;;;;;;;8.35;4.82;;;;;;;16.04;43.81;100380.38;10312633;28;20511;-81
2022/04/14 18:53:53;;;;;;;7.82;5.05;;;;;;;15.85;44.62;100387.97;10315078;28;20563;-81
2022/04/14 18:58:56;;;;;;;7.20;5.13;;;;;;;15.68;45.15;100394.47;10314760;28;20054;-81
2022/04/14 19:03:58;;;;;;;6.57;5.05;;;;;;;15.53;45.43;100400.03;10321368;28;20156;-81
2022/04/14 19:09:00;;;;;;;11.35;5.57;;;;;;;15.40;45.89;100400.91;10328298;28;20113;-81
2022/04/14 19:14:02;;;;;;;7.93;4.90;;;;;;;15.25;46.17;100395.88;10327364;28;20081;-81
2022/04/14 19:19:05;;;;;;;7.82;4.60;;;;;;;15.12;46.85;100402.97;10325840;28;20054;-81
2022/04/14 19:24:07;;;;;;;8.52;4.80;;;;;;;14.97;47.15;100415.44;10325524;28;20085;-81
2022/04/14 19:29:10;;;;;;;8.38;4.85;;;;;;;14.91;47.24;100415.00;10325672;28;20061;-81
2022/04/14 19:34:14;;;;;;;7.32;5.13;;;;;;;14.87;47.73;100427.56;10324741;28;20483;-82
2022/04/14 19:39:15;;;;;;;6.18;4.60;;;;;;;14.79;48.02;100432.53;10326520;28;20054;-81
2022/04/14 19:44:17;;;;;;;7.43;5.25;;;;;;;14.68;48.24;100428.91;10325284;28;20133;-81
2022/04/14 19:49:19;;;;;;;6.80;5.50;;;;;;;14.52;48.70;100440.50;10325467;28;20570;-81
2022/04/14 19:54:25;;;;;;;7.78;5.75;;;;;;;14.33;49.28;100450.56;10328187;28;20046;-81
2022/04/14 19:59:28;;;;;;;7.45;5.50;;;;;;;14.26;49.53;100444.03;10325695;28;20133;-81
2022/04/14 20:04:30;;;;;;;11.57;5.65;;;;;;;14.15;49.66;100449.16;10327419;28;20137;-81
2022/04/14 20:09:33;;;;;;;8.77;6.10;;;;;;;14.06;50.16;100446.28;10327477;28;20112;-81
2022/04/14 20:14:35;;;;;;;12.07;7.22;;;;;;;13.99;50.23;100448.47;10326019;28;20124;-81
2022/04/14 20:19:38;;;;;;;8.48;6.32;;;;;;;13.94;50.53;100455.84;10321070;28;20074;-82
2022/04/14 20:24:41;;;;;;;8.43;6.07;;;;;;;13.88;50.63;100452.75;10304747;28;20129;-82
2022/04/14 20:29:43;;;;;;;11.35;6.65;;;;;;;13.79;51.00;100454.19;10320764;28;20066;-82
2022/04/14 20:34:46;;;;;;;8.75;6.50;;;;;;;13.82;50.84;100458.41;10320221;28;20477;-81
2022/04/14 20:39:48;;;;;;;13.10;7.78;;;;;;;13.81;50.85;100461.97;10321432;28;20112;-82
2022/04/14 20:44:50;;;;;;;12.52;8.00;;;;;;;13.85;50.88;100460.84;10321334;28;20051;-81
2022/04/14 20:49:55;;;;;;;8.95;6.78;;;;;;;13.84;51.24;100459.97;10320241;28;20197;-81
2022/04/14 20:54:59;;;;;;;9.30;6.40;;;;;;;13.77;51.21;100464.81;10318929;28;21119;-82
2022/04/14 21:00:04;;;;;;;8.93;6.15;;;;;;;13.62;51.65;100467.56;10319200;28;20050;-81
2022/04/14 21:05:06;;;;;;;11.40;8.20;;;;;;;13.54;51.73;100469.84;10319174;28;20050;-81
2022/04/14 21:10:08;;;;;;;12.25;8.80;;;;;;;13.43;51.79;100473.13;10319555;28;20218;-81
2022/04/14 21:15:10;;;;;;;16.38;7.05;;;;;;;13.32;52.47;100469.47;10319432;28;20073;-81
2022/04/14 21:20:12;;;;;;;12.38;6.88;;;;;;;13.30;52.44;100472.19;10320164;28;20102;-81
2022/04/14 21:25:14;;;;;;;9.65;6.72;;;;;;;13.21;52.80;100471.94;10317776;28;20907;-81
2022/04/14 21:30:16;;;;;;;10.45;6.65;;;;;;;13.08;53.01;100474.47;10319839;28;20141;-81
2022/04/14 21:35:19;;;;;;;8.55;6.60;;;;;;;12.98;53.34;100483.00;10303270;28;20129;-81
2022/04/14 21:40:21;;;;;;;10.45;7.00;;;;;;;12.99;53.59;100477.66;10319599;28;20333;-82
2022/04/14 21:45:32;;;;;;;10.90;7.13;;;;;;;12.99;53.52;100482.91;10319427;28;20058;-82
2022/04/14 21:50:35;;;;;;;10.70;7.10;;;;;;;12.93;53.68;100489.38;10318983;28;20050;-82
2022/04/14 21:55:37;;;;;;;11.80;8.48;;;;;;;12.81;53.88;100492.75;10318757;28;20080;-81
2022/04/14 22:01:02;;;;;;;9.07;7.85;;;;;;;12.74;54.22;100486.16;10319680;28;20058;-81
2022/04/14 22:06:09;;;;;;;13.18;7.97;;;;;;;12.71;54.35;100493.38;10319279;28;20058;-82
2022/04/14 22:11:12;;;;;;;13.32;7.68;;;;;;;12.58;54.34;100493.25;10318454;28;20065;-82
2022/04/14 22:16:14;;;;;;;12.20;7.60;;;;;;;12.42;54.88;100497.72;10318513;28;20566;-82
2022/04/14 22:21:17;;;;;;;10.60;7.53;;;;;;;12.34;55.11;100505.19;10315097;28;20177;-81
2022/04/14 22:26:19;;;;;;;11.85;7.35;;;;;;;12.25;55.14;100503.06;10312096;28;20094;-81
2022/04/14 22:31:21;;;;;;;9.77;7.25;;;;;;;12.14;55.56;100505.44;10314971;28;20077;-82
2022/04/14 22:36:23;;;;;;;12.57;7.88;;;;;;;12.11;55.68;100513.47;10316169;28;20065;-82
2022/04/14 22:41:27;;;;;;;10.20;8.10;;;;;;;12.05;55.86;100519.91;10315290;28;20054;-82
2022/04/14 22:46:28;;;;;;;11.10;7.55;;;;;;;11.94;56.00;100521.47;10299502;28;20058;-81
2022/04/14 22:51:30;;;;;;;12.68;8.52;;;;;;;11.65;56.88;100528.31;10316659;28;20582;-82
2022/04/14 22:56:33;;;;;;;10.57;8.00;;;;;;;11.61;56.84;100518.94;10299750;28;20456;-82
2022/04/14 23:01:34;;;;;;;12.45;8.85;;;;;;;11.47;57.29;100526.69;10301066;28;20086;-82
2022/04/14 23:06:38;;;;;;;11.30;8.40;;;;;;;11.51;57.13;100522.13;10314052;28;20054;-82
2022/04/14 23:11:40;;;;;;;11.80;8.82;;;;;;;11.43;57.35;100524.31;10317285;28;20062;-82
2022/04/14 23:16:42;;;;;;;11.05;8.43;;;;;;;11.31;57.53;100528.44;10316477;28;20113;-82
2022/04/14 23:21:44;;;;;;;13.52;8.93;;;;;;;11.26;57.76;100538.31;10316575;28;20097;-82